< < Back
Terminal Aerodrome Forecast


Current Version              Previous Versions:   1  2  3  4  5  6  7  8  9  

Terminal Aerodrome Forecast

181
FTUS42 KFFC 251124
TAFATL
TAF
KATL 251124Z 2512/2618 16004KT P6SM SCT250
     FM251500 19006KT P6SM SCT050 BKN250
     FM260200 17004KT P6SM BKN250
     FM261500 22004KT P6SM FEW050=

Latest METAR

739
SAUS70 KWBC 251700 RRK
MTRATL
METAR KATL 251652Z VRB05KT 10SM FEW070 FEW250 29/12 A3024 RMK AO2 SLP232
T02890122


USA.gov is the U.S. government's official web portal to all federal, state and local government web resources and services.